Derby Field
KLOL : now visible

Airfield :











YOU CAN JOIN US ON...

 
LOGIN :

Register | Disclaimer

   EN    FR    IT 

 









Legend :    VFR   Marginal VFR   IFR   Intensive IFR   Very Intensive IFR
Visi :
Ceiling :
>= 8 km
>= 3000ft
5 to 8 km
1000 to 3000 ft
1500m to 5 km
500 to 1000 ft
800 to 1500m
200 to 500 ft
< 800m
< 200 ft
Symbols :   Thunderstorms  Fog  Heavy snow  Heavy precipitations  Wind > 20 kt






- Airport Elevation : 3904 ft


KLOL - Derby Field

CURRENT METAR :
  • 021653Z AUTO 13005KT 10SM CLR 27/M07 A2995 RMK AO2 SLP097 T02671072

EXPIRED METARs :
  • 021553Z AUTO 00000KT 10SM CLR 24/M02 A2996 RMK AO2 SLP102 T02441022
  • 021453Z AUTO 00000KT 10SM CLR 21/M04 A2997 RMK AO2 SLP104 T02111039 58001
  • 020253Z AUTO 31010KT 10SM CLR 30/M11 A2992 RMK AO2 SLP086 T03001111 55006

TAF N/A
KZOA FIR / North America



MET'MAP, your aeronautical weather chart ! - Copyright ORBIFLY December 2007 - Disclaimer

ORBIFLY MET'MAP TEAM :

Programming & Development : Alexandra Zaïnal
Original concept : Baudouin d'Aumeries
Technical & hardware support : Manuel Goepfert
Assistance : Marc-Olivier Méhu




SOURCES & CREDITS :

   NOAA       Earth
Advisory